Eden, Vermont
Current Conditions -  °F | °C
As of 11:55 AM on Sunday 23 Nov 2014 (Local Time) from KEFK Reporting Station
Overcast Overcast  
Wind Chill:   Ceiling: 1300
Heat Index:   Visibility: 10mi
Dew Point:   Wind: 6mph
Humidity: 91%   Direction: 160°SSE
Pressure: 30.02"   Gusts: NA
Location:  44.71°N, 72.55°W
Report Text: KEFK 231655Z AUTO 16005KT 10SM SCT008 OVC013 05/03 A3002 RMK AO2 T00450032
Loading
Personal Weather Stations






























Interactive Weather Map New forecast layout! Learn more

10-Day Weather Forecast

Advertisements
Track Severe Weather on mobile